Time;durP1;ratioP1;P1;durP2;ratioP2;P2;SDS_P1;SDS_P2;PMS_P1;PMS_P2;Temp;Humidity;BMP_temperature;BMP_pressure;BME280_temperature;BME280_humidity;BME280_pressure;Samples;Min_cycle;Max_cycle;Signal;HPM_P1;HPM_P2
2023/05/21 00:01:51;;;;;;;12.93;9.67;;;;;;;;;;5012653;28;20773;-43
2023/05/21 00:04:17;;;;;;;14.83;10.20;;;;;;;;;;5012521;28;20407;-43
2023/05/21 00:06:43;;;;;;;12.30;10.07;;;;;;;;;;5012434;28;20473;-43
2023/05/21 00:09:11;;;;;;;10.90;9.40;;;;;;;;;;5013546;28;20845;-44
2023/05/21 00:11:37;;;;;;;13.63;10.50;;;;;;;;;;5012618;28;20443;-44
2023/05/21 00:14:03;;;;;;;12.03;9.87;;;;;;;;;;5011662;28;20459;-44
2023/05/21 00:16:29;;;;;;;13.93;9.87;;;;;;;;;;5012018;28;20410;-45
2023/05/21 00:18:56;;;;;;;13.90;10.30;;;;;;;;;;5012424;28;20426;-43
2023/05/21 00:21:24;;;;;;;14.83;10.77;;;;;;;;;;5011778;28;20466;-43
2023/05/21 00:23:52;;;;;;;12.47;10.80;;;;;;;;;;5012489;28;20417;-44
2023/05/21 00:26:19;;;;;;;12.23;10.20;;;;;;;;;;5012166;28;20475;-43
2023/05/21 00:28:44;;;;;;;13.70;10.40;;;;;;;;;;5012323;28;20522;-44
2023/05/21 00:31:10;;;;;;;15.53;11.57;;;;;;;;;;5010728;28;20461;-44
2023/05/21 00:33:36;;;;;;;14.70;11.20;;;;;;;;;;5012327;28;20427;-44
2023/05/21 00:36:02;;;;;;;16.87;10.80;;;;;;;;;;5012025;28;20413;-45
2023/05/21 00:38:31;;;;;;;14.70;10.07;;;;;;;;;;5012321;28;20442;-44
2023/05/21 00:40:59;;;;;;;15.80;11.50;;;;;;;;;;5004329;28;20435;-43
2023/05/21 00:43:25;;;;;;;15.87;10.07;;;;;;;;;;5012239;28;20496;-44
2023/05/21 00:45:52;;;;;;;16.50;11.27;;;;;;;;;;5011890;28;20871;-45
2023/05/21 00:48:19;;;;;;;14.40;10.50;;;;;;;;;;5012125;28;20459;-43
2023/05/21 00:50:45;;;;;;;14.43;10.73;;;;;;;;;;5012089;28;20422;-43
2023/05/21 00:53:14;;;;;;;11.90;9.60;;;;;;;;;;5012095;28;20476;-43
2023/05/21 00:55:40;;;;;;;14.10;9.27;;;;;;;;;;5011949;28;20480;-45
2023/05/21 00:58:06;;;;;;;12.00;9.60;;;;;;;;;;5011773;28;20529;-43
2023/05/21 01:00:33;;;;;;;11.20;9.40;;;;;;;;;;5010920;28;20435;-44
2023/05/21 01:03:03;;;;;;;11.50;9.00;;;;;;;;;;5011652;28;20441;-44
2023/05/21 01:05:29;;;;;;;13.33;8.90;;;;;;;;;;5011550;28;20551;-43
2023/05/21 01:07:56;;;;;;;13.47;8.70;;;;;;;;;;5010936;28;20440;-43
2023/05/21 01:10:23;;;;;;;11.93;10.07;;;;;;;;;;5011663;28;20901;-44
2023/05/21 01:12:49;;;;;;;10.17;8.60;;;;;;;;;;5010540;28;20457;-43
2023/05/21 01:15:15;;;;;;;16.20;9.37;;;;;;;;;;5011731;28;20425;-44
2023/05/21 01:17:44;;;;;;;11.50;9.33;;;;;;;;;;5011460;28;20441;-45
2023/05/21 01:20:10;;;;;;;10.67;8.80;;;;;;;;;;5012041;28;20422;-44
2023/05/21 01:22:44;;;;;;;11.93;9.00;;;;;;;;;;5011770;28;20471;-43
2023/05/21 01:25:10;;;;;;;13.57;9.10;;;;;;;;;;5011750;28;20543;-45
2023/05/21 01:27:36;;;;;;;9.30;8.40;;;;;;;;;;5018407;28;20421;-44
2023/05/21 01:30:02;;;;;;;9.63;8.63;;;;;;;;;;5010836;28;20988;-44
2023/05/21 01:32:32;;;;;;;9.50;8.27;;;;;;;;;;5011075;28;20459;-44
2023/05/21 01:34:58;;;;;;;12.47;9.80;;;;;;;;;;5004696;28;20416;-43
2023/05/21 01:37:32;;;;;;;13.43;9.30;;;;;;;;;;5011226;28;20429;-44
2023/05/21 01:40:05;;;;;;;13.33;9.40;;;;;;;;;;5003865;28;20440;-44
2023/05/21 01:42:31;;;;;;;10.83;8.97;;;;;;;;;;5010350;28;20428;-46
2023/05/21 01:44:59;;;;;;;12.30;9.30;;;;;;;;;;5011601;28;20423;-44
2023/05/21 01:47:26;;;;;;;10.90;9.40;;;;;;;;;;5011319;28;20437;-43
2023/05/21 01:49:52;;;;;;;9.40;8.40;;;;;;;;;;5011985;28;20405;-44
2023/05/21 01:52:18;;;;;;;10.10;8.70;;;;;;;;;;5011433;28;20442;-43
2023/05/21 01:54:44;;;;;;;8.90;8.03;;;;;;;;;;5011383;28;20450;-44
2023/05/21 01:57:10;;;;;;;11.90;8.30;;;;;;;;;;5011268;28;20729;-43
2023/05/21 01:59:37;;;;;;;11.30;8.30;;;;;;;;;;5010430;28;20433;-45
2023/05/21 02:02:03;;;;;;;10.30;8.27;;;;;;;;;;5010905;28;20403;-43
2023/05/21 02:04:30;;;;;;;9.03;7.70;;;;;;;;;;5011884;28;20480;-43
2023/05/21 02:06:56;;;;;;;10.90;7.40;;;;;;;;;;5003014;28;20968;-43
2023/05/21 02:09:22;;;;;;;12.07;8.10;;;;;;;;;;5011415;28;20475;-43
2023/05/21 02:11:48;;;;;;;8.90;8.00;;;;;;;;;;5011281;28;20530;-44
2023/05/21 02:14:15;;;;;;;9.07;8.13;;;;;;;;;;5011365;28;20412;-44
2023/05/21 02:16:41;;;;;;;11.10;7.87;;;;;;;;;;5010895;28;20961;-43
2023/05/21 02:19:09;;;;;;;9.60;7.90;;;;;;;;;;5011264;28;20451;-43
2023/05/21 02:21:35;;;;;;;9.80;8.23;;;;;;;;;;5011206;28;20905;-43
2023/05/21 02:24:01;;;;;;;13.97;9.30;;;;;;;;;;5011299;28;20475;-43
2023/05/21 02:26:27;;;;;;;10.10;8.00;;;;;;;;;;5019209;28;20955;-44
2023/05/21 02:28:54;;;;;;;9.43;8.20;;;;;;;;;;5013979;28;20449;-43
2023/05/21 02:31:20;;;;;;;9.23;8.23;;;;;;;;;;5014003;28;20920;-43
2023/05/21 02:33:46;;;;;;;8.50;7.60;;;;;;;;;;5014447;28;20417;-43
2023/05/21 02:36:14;;;;;;;8.40;7.50;;;;;;;;;;5014447;28;20415;-43
2023/05/21 02:38:42;;;;;;;11.03;7.17;;;;;;;;;;5014520;28;20456;-44
2023/05/21 02:41:08;;;;;;;9.43;7.00;;;;;;;;;;5014579;28;20449;-43
2023/05/21 02:43:34;;;;;;;9.57;7.40;;;;;;;;;;5014414;28;20414;-44
2023/05/21 02:46:00;;;;;;;8.40;7.50;;;;;;;;;;5014062;28;20423;-45
2023/05/21 02:48:26;;;;;;;8.50;6.93;;;;;;;;;;5014355;28;20445;-43
2023/05/21 02:50:52;;;;;;;9.60;8.10;;;;;;;;;;5014283;28;20829;-44
2023/05/21 02:53:18;;;;;;;8.23;7.00;;;;;;;;;;5014256;28;20896;-44
2023/05/21 02:55:44;;;;;;;8.80;7.67;;;;;;;;;;5014199;28;20447;-43
2023/05/21 02:58:12;;;;;;;9.37;8.37;;;;;;;;;;5013010;28;20454;-43
2023/05/21 03:00:38;;;;;;;8.47;7.40;;;;;;;;;;5014024;28;20994;-44
2023/05/21 03:03:04;;;;;;;9.00;8.20;;;;;;;;;;5014037;28;20760;-43
2023/05/21 03:05:30;;;;;;;10.00;8.07;;;;;;;;;;5014091;28;20456;-43
2023/05/21 03:07:56;;;;;;;8.80;7.80;;;;;;;;;;5013717;28;20793;-43
2023/05/21 03:10:22;;;;;;;15.70;8.40;;;;;;;;;;5014238;28;20914;-44
2023/05/21 03:12:48;;;;;;;9.63;8.63;;;;;;;;;;5013843;28;20449;-45
2023/05/21 03:15:14;;;;;;;9.50;8.07;;;;;;;;;;5013849;28;20420;-43
2023/05/21 03:17:43;;;;;;;10.90;8.33;;;;;;;;;;5013429;28;20438;-44
2023/05/21 03:20:15;;;;;;;9.07;7.97;;;;;;;;;;5013747;28;20898;-44
2023/05/21 03:22:41;;;;;;;9.87;8.07;;;;;;;;;;5013764;28;20778;-44
2023/05/21 03:25:08;;;;;;;8.80;7.93;;;;;;;;;;5013714;28;20411;-44
2023/05/21 03:27:33;;;;;;;9.30;7.93;;;;;;;;;;5019762;28;20416;-43
2023/05/21 03:30:00;;;;;;;12.63;8.83;;;;;;;;;;5013505;28;20417;-44
2023/05/21 03:32:25;;;;;;;10.23;9.03;;;;;;;;;;5013555;28;20893;-43
2023/05/21 03:34:51;;;;;;;9.67;8.40;;;;;;;;;;5013466;28;20414;-43
2023/05/21 03:37:17;;;;;;;15.20;9.17;;;;;;;;;;5012017;28;20435;-44
2023/05/21 03:39:43;;;;;;;12.00;9.70;;;;;;;;;;5013395;28;20426;-45
2023/05/21 03:42:09;;;;;;;10.10;9.00;;;;;;;;;;5013510;28;20450;-43
2023/05/21 03:44:35;;;;;;;9.33;8.20;;;;;;;;;;5013270;28;20899;-42
2023/05/21 03:47:01;;;;;;;13.50;8.13;;;;;;;;;;5012853;28;20461;-43
2023/05/21 03:49:27;;;;;;;10.33;9.00;;;;;;;;;;5013243;28;20907;-43
2023/05/21 03:51:53;;;;;;;9.70;8.47;;;;;;;;;;5013182;28;20413;-44
2023/05/21 03:54:19;;;;;;;12.40;9.27;;;;;;;;;;5013191;28;20457;-43
2023/05/21 03:56:45;;;;;;;9.60;8.40;;;;;;;;;;5011714;28;20456;-44
2023/05/21 03:59:11;;;;;;;10.27;8.73;;;;;;;;;;5012313;28;20429;-44
2023/05/21 04:01:37;;;;;;;17.50;9.90;;;;;;;;;;5013249;28;20407;-45
2023/05/21 04:04:03;;;;;;;9.57;8.57;;;;;;;;;;5012928;28;20403;-45
2023/05/21 04:06:29;;;;;;;10.70;9.20;;;;;;;;;;5012567;28;20806;-44
2023/05/21 04:08:55;;;;;;;10.43;8.57;;;;;;;;;;5012903;28;20413;-43
2023/05/21 04:11:21;;;;;;;11.97;9.47;;;;;;;;;;5012875;28;20782;-43
2023/05/21 04:13:47;;;;;;;11.57;10.27;;;;;;;;;;5012682;28;20411;-43
2023/05/21 04:16:17;;;;;;;10.60;9.33;;;;;;;;;;5012467;28;20435;-43
2023/05/21 04:18:43;;;;;;;12.27;10.00;;;;;;;;;;5012646;28;20921;-44
2023/05/21 04:21:09;;;;;;;10.73;9.10;;;;;;;;;;5012867;28;20405;-44
2023/05/21 04:23:36;;;;;;;10.20;8.70;;;;;;;;;;5012714;28;20466;-43
2023/05/21 04:26:03;;;;;;;10.40;8.73;;;;;;;;;;5012674;28;20960;-43
2023/05/21 04:28:29;;;;;;;9.13;8.23;;;;;;;;;;5011950;28;20448;-44
2023/05/21 04:30:55;;;;;;;9.90;8.30;;;;;;;;;;5012424;28;20499;-44
2023/05/21 04:33:23;;;;;;;9.33;8.30;;;;;;;;;;5012408;28;20450;-44
2023/05/21 04:35:50;;;;;;;15.37;9.47;;;;;;;;;;5012385;28;20415;-43
2023/05/21 04:38:18;;;;;;;12.20;9.17;;;;;;;;;;5012284;28;20431;-44
2023/05/21 04:40:44;;;;;;;10.40;9.30;;;;;;;;;;5011075;28;20924;-44
2023/05/21 04:43:10;;;;;;;12.63;9.57;;;;;;;;;;5012987;28;20903;-45
2023/05/21 04:45:36;;;;;;;17.70;9.37;;;;;;;;;;5012096;28;20523;-44
2023/05/21 04:48:02;;;;;;;12.40;9.13;;;;;;;;;;5011722;28;20447;-44
2023/05/21 04:50:32;;;;;;;10.03;8.50;;;;;;;;;;5011976;28;20415;-43
2023/05/21 04:52:58;;;;;;;11.87;8.90;;;;;;;;;;5004385;28;20513;-44
2023/05/21 04:55:24;;;;;;;12.40;9.70;;;;;;;;;;5011362;28;20832;-45
2023/05/21 04:57:51;;;;;;;11.00;9.13;;;;;;;;;;5011479;28;20800;-43
2023/05/21 05:00:17;;;;;;;10.17;8.73;;;;;;;;;;5011412;28;20500;-43
2023/05/21 05:02:43;;;;;;;10.60;9.50;;;;;;;;;;5012035;28;20425;-43
2023/05/21 05:05:09;;;;;;;9.70;8.80;;;;;;;;;;5011925;28;20408;-43
2023/05/21 05:07:36;;;;;;;12.10;8.87;;;;;;;;;;5011592;28;20846;-43
2023/05/21 05:10:01;;;;;;;8.87;7.90;;;;;;;;;;5011828;28;20781;-43
2023/05/21 05:12:27;;;;;;;10.43;9.33;;;;;;;;;;5011941;28;20978;-43
2023/05/21 05:14:53;;;;;;;10.40;8.90;;;;;;;;;;5012060;28;20377;-44
2023/05/21 05:17:19;;;;;;;16.40;9.90;;;;;;;;;;5011649;28;20522;-43
2023/05/21 05:19:45;;;;;;;12.67;9.50;;;;;;;;;;5011849;28;20395;-44
2023/05/21 05:22:11;;;;;;;10.07;8.97;;;;;;;;;;5011063;28;20395;-44
2023/05/21 05:24:37;;;;;;;11.23;8.00;;;;;;;;;;5009943;28;20508;-44
2023/05/21 05:27:03;;;;;;;12.93;9.47;;;;;;;;;;5011615;28;20474;-44
2023/05/21 05:29:29;;;;;;;10.17;9.20;;;;;;;;;;5010148;28;21131;-44
2023/05/21 05:31:55;;;;;;;11.10;10.00;;;;;;;;;;5010894;28;20401;-44
2023/05/21 05:34:21;;;;;;;10.33;9.43;;;;;;;;;;5010014;28;20418;-44
2023/05/21 05:36:47;;;;;;;10.90;9.60;;;;;;;;;;5010573;28;20501;-43
2023/05/21 05:39:13;;;;;;;12.03;9.20;;;;;;;;;;5010789;28;20409;-44
2023/05/21 05:41:39;;;;;;;12.40;9.00;;;;;;;;;;5011140;28;20412;-44
2023/05/21 05:44:05;;;;;;;13.77;9.60;;;;;;;;;;5011811;28;20957;-43
2023/05/21 05:46:31;;;;;;;11.50;9.60;;;;;;;;;;5011109;28;20438;-45
2023/05/21 05:48:57;;;;;;;11.00;9.40;;;;;;;;;;5011597;28;20559;-45
2023/05/21 05:51:23;;;;;;;13.60;9.57;;;;;;;;;;5011437;28;20481;-43
2023/05/21 05:53:48;;;;;;;9.90;8.63;;;;;;;;;;5011463;28;20421;-43
2023/05/21 05:56:15;;;;;;;12.83;10.20;;;;;;;;;;5010219;28;20412;-43
2023/05/21 05:58:42;;;;;;;12.47;9.93;;;;;;;;;;5011382;28;20406;-45
2023/05/21 06:01:08;;;;;;;11.40;9.80;;;;;;;;;;5012734;28;20400;-44
2023/05/21 06:03:34;;;;;;;10.80;9.37;;;;;;;;;;5015154;28;20502;-43
2023/05/21 06:05:59;;;;;;;10.63;9.53;;;;;;;;;;5014752;28;20437;-43
2023/05/21 06:08:25;;;;;;;11.30;9.70;;;;;;;;;;5015087;28;20419;-43
2023/05/21 06:10:51;;;;;;;11.30;9.13;;;;;;;;;;5015020;28;20494;-44
2023/05/21 06:13:17;;;;;;;15.33;9.40;;;;;;;;;;5015120;28;20744;-44
2023/05/21 06:15:43;;;;;;;10.50;9.40;;;;;;;;;;5015096;28;20418;-44
2023/05/21 06:18:10;;;;;;;10.63;9.57;;;;;;;;;;5015130;28;20434;-45
2023/05/21 06:20:37;;;;;;;11.63;9.43;;;;;;;;;;5014812;28;20412;-46
2023/05/21 06:23:03;;;;;;;11.83;10.10;;;;;;;;;;5014833;28;20472;-44
2023/05/21 06:25:30;;;;;;;10.90;9.80;;;;;;;;;;5013723;28;20478;-44
2023/05/21 06:27:56;;;;;;;11.73;9.03;;;;;;;;;;5013238;28;20413;-44
2023/05/21 06:30:22;;;;;;;11.13;10.03;;;;;;;;;;5014880;28;20800;-44
2023/05/21 06:32:48;;;;;;;12.70;9.60;;;;;;;;;;5014630;28;20378;-43
2023/05/21 06:35:14;;;;;;;12.43;10.40;;;;;;;;;;5014595;28;20429;-45
2023/05/21 06:37:40;;;;;;;13.30;10.60;;;;;;;;;;5012664;28;20426;-45
2023/05/21 06:40:06;;;;;;;11.93;10.40;;;;;;;;;;5013786;28;20426;-43
2023/05/21 06:42:32;;;;;;;11.10;10.00;;;;;;;;;;5017812;28;20805;-45
2023/05/21 06:44:58;;;;;;;11.73;10.30;;;;;;;;;;5019957;28;20423;-44
2023/05/21 06:47:25;;;;;;;13.00;11.50;;;;;;;;;;5013966;28;21002;-44
2023/05/21 06:49:51;;;;;;;15.23;10.63;;;;;;;;;;5013896;28;20390;-43
2023/05/21 06:52:16;;;;;;;11.43;10.23;;;;;;;;;;5014251;28;20414;-43
2023/05/21 06:54:42;;;;;;;11.60;10.37;;;;;;;;;;5012682;28;20423;-44
2023/05/21 06:57:08;;;;;;;14.97;11.53;;;;;;;;;;5017951;28;20757;-44
2023/05/21 06:59:34;;;;;;;14.10;10.93;;;;;;;;;;5014059;28;20408;-44
2023/05/21 07:02:00;;;;;;;14.67;11.57;;;;;;;;;;5014124;28;20448;-45
2023/05/21 07:04:26;;;;;;;12.17;10.83;;;;;;;;;;5013956;28;20411;-45
2023/05/21 07:06:53;;;;;;;13.27;11.90;;;;;;;;;;5013552;28;20446;-45
2023/05/21 07:09:19;;;;;;;17.77;12.97;;;;;;;;;;5014024;28;20412;-44
2023/05/21 07:11:45;;;;;;;15.00;13.20;;;;;;;;;;5013665;28;20513;-44
2023/05/21 07:14:11;;;;;;;16.87;12.77;;;;;;;;;;5013969;28;20387;-46
2023/05/21 07:16:38;;;;;;;15.33;12.23;;;;;;;;;;5013534;28;20492;-46
2023/05/21 07:19:03;;;;;;;13.73;11.43;;;;;;;;;;5013663;28;20396;-44
2023/05/21 07:21:30;;;;;;;17.80;13.67;;;;;;;;;;5013687;28;20395;-45
2023/05/21 07:23:55;;;;;;;15.43;11.67;;;;;;;;;;5012872;28;20474;-46
2023/05/21 07:26:21;;;;;;;16.97;12.53;;;;;;;;;;5012118;28;20786;-44
2023/05/21 07:28:47;;;;;;;15.90;12.37;;;;;;;;;;5013572;28;20865;-44
2023/05/21 07:31:14;;;;;;;14.97;11.77;;;;;;;;;;5013541;28;20416;-44
2023/05/21 07:33:40;;;;;;;16.20;11.90;;;;;;;;;;5021344;28;20401;-44
2023/05/21 07:36:06;;;;;;;14.37;11.70;;;;;;;;;;5013322;28;20486;-44
2023/05/21 07:38:32;;;;;;;18.40;12.60;;;;;;;;;;5013503;28;20417;-45
2023/05/21 07:40:58;;;;;;;12.80;10.80;;;;;;;;;;5013414;28;20436;-44
2023/05/21 07:43:24;;;;;;;13.63;11.20;;;;;;;;;;5013339;28;20500;-45
2023/05/21 07:45:50;;;;;;;14.73;11.47;;;;;;;;;;5013136;28;20983;-44
2023/05/21 07:48:16;;;;;;;11.47;10.10;;;;;;;;;;5012800;28;20402;-44
2023/05/21 07:50:42;;;;;;;14.40;12.10;;;;;;;;;;5013206;28;20464;-44
2023/05/21 07:53:08;;;;;;;14.77;12.40;;;;;;;;;;5005676;28;20914;-44
2023/05/21 07:55:34;;;;;;;14.97;11.10;;;;;;;;;;5012947;28;20421;-44
2023/05/21 07:58:00;;;;;;;15.50;12.43;;;;;;;;;;5012777;28;20510;-44
2023/05/21 08:00:26;;;;;;;17.93;12.20;;;;;;;;;;5013015;28;20838;-44
2023/05/21 08:02:52;;;;;;;14.13;11.47;;;;;;;;;;5012791;28;20399;-44
2023/05/21 08:05:18;;;;;;;13.83;11.40;;;;;;;;;;5012861;28;20415;-43
2023/05/21 08:07:45;;;;;;;14.83;11.90;;;;;;;;;;5012587;28;20427;-44
2023/05/21 08:10:11;;;;;;;14.80;11.70;;;;;;;;;;5012919;28;20412;-43
2023/05/21 08:12:37;;;;;;;14.03;12.60;;;;;;;;;;5012604;28;20424;-44
2023/05/21 08:15:03;;;;;;;14.90;12.73;;;;;;;;;;5012790;28;20498;-44
2023/05/21 08:17:29;;;;;;;15.77;13.10;;;;;;;;;;5012173;28;20435;-44
2023/05/21 08:19:55;;;;;;;13.43;12.03;;;;;;;;;;5012584;28;20415;-45
2023/05/21 08:22:21;;;;;;;14.70;12.30;;;;;;;;;;5011669;28;20438;-46
2023/05/21 08:24:47;;;;;;;14.90;12.43;;;;;;;;;;5011246;28;20438;-44
2023/05/21 08:27:14;;;;;;;15.50;12.40;;;;;;;;;;5019048;28;20470;-44
2023/05/21 08:29:41;;;;;;;15.47;12.50;;;;;;;;;;5012399;28;20410;-44
2023/05/21 08:32:08;;;;;;;13.77;12.33;;;;;;;;;;5012392;28;20465;-44
2023/05/21 08:34:34;;;;;;;13.47;12.20;;;;;;;;;;5012329;28;20414;-43
2023/05/21 08:37:00;;;;;;;14.57;12.77;;;;;;;;;;5010945;28;20472;-43
2023/05/21 08:39:26;;;;;;;13.67;12.10;;;;;;;;;;5012436;28;20462;-44
2023/05/21 08:41:56;;;;;;;17.50;13.53;;;;;;;;;;5012482;28;20413;-44
2023/05/21 08:44:23;;;;;;;16.50;13.60;;;;;;;;;;5012364;28;20849;-45
2023/05/21 08:46:50;;;;;;;13.70;11.30;;;;;;;;;;5011844;28;20509;-44
2023/05/21 08:49:17;;;;;;;14.77;12.70;;;;;;;;;;5020084;28;20415;-43
2023/05/21 08:51:43;;;;;;;15.47;12.73;;;;;;;;;;5019785;28;20460;-44
2023/05/21 08:54:10;;;;;;;16.47;12.13;;;;;;;;;;5011077;28;20497;-44
2023/05/21 08:56:36;;;;;;;13.80;11.80;;;;;;;;;;5011821;28;20460;-43
2023/05/21 08:59:02;;;;;;;16.33;12.47;;;;;;;;;;5011911;28;20461;-44
2023/05/21 09:01:28;;;;;;;14.47;13.10;;;;;;;;;;5012168;28;20450;-44
2023/05/21 09:03:56;;;;;;;16.60;13.47;;;;;;;;;;5012176;28;20410;-44
2023/05/21 09:06:24;;;;;;;18.60;13.77;;;;;;;;;;5011541;28;20553;-44
2023/05/21 09:08:57;;;;;;;14.37;12.30;;;;;;;;;;5011920;28;20439;-44
2023/05/21 09:11:23;;;;;;;14.30;12.80;;;;;;;;;;5011926;28;20463;-43
2023/05/21 09:13:50;;;;;;;15.97;11.80;;;;;;;;;;5011717;28;20411;-45
2023/05/21 09:16:16;;;;;;;13.83;12.33;;;;;;;;;;5011792;28;20415;-45
2023/05/21 09:18:42;;;;;;;18.50;13.13;;;;;;;;;;5012000;28;20474;-45
2023/05/21 09:21:27;;;;;;;15.90;13.30;;;;;;;;;;5011061;28;20449;-45
2023/05/21 09:23:54;;;;;;;12.90;11.60;;;;;;;;;;5010948;28;20427;-44
2023/05/21 09:26:22;;;;;;;15.60;11.97;;;;;;;;;;5016759;28;20454;-44
2023/05/21 09:28:48;;;;;;;15.37;12.93;;;;;;;;;;5012807;28;20411;-44
2023/05/21 09:31:13;;;;;;;14.67;13.17;;;;;;;;;;5011685;28;20472;-44
2023/05/21 09:33:45;;;;;;;15.70;14.00;;;;;;;;;;5008909;28;20418;-44
2023/05/21 09:36:11;;;;;;;14.57;12.30;;;;;;;;;;5015287;28;20411;-44
2023/05/21 09:38:37;;;;;;;12.80;10.90;;;;;;;;;;5015370;28;20840;-45
2023/05/21 09:41:06;;;;;;;14.43;12.50;;;;;;;;;;5015487;28;20915;-45
2023/05/21 09:43:32;;;;;;;15.60;13.27;;;;;;;;;;5015465;28;20410;-44
2023/05/21 09:45:59;;;;;;;17.97;13.03;;;;;;;;;;5015123;28;20458;-44
2023/05/21 09:48:35;;;;;;;14.73;11.77;;;;;;;;;;5014846;28;20447;-44
2023/05/21 09:51:14;;;;;;;13.70;12.30;;;;;;;;;;5009495;28;20427;-44
2023/05/21 09:53:44;;;;;;;16.47;12.67;;;;;;;;;;5014621;28;20453;-45
2023/05/21 09:56:10;;;;;;;14.50;12.50;;;;;;;;;;5015001;28;20953;-45
2023/05/21 09:58:37;;;;;;;14.40;12.80;;;;;;;;;;5015233;28;20965;-45
2023/05/21 10:01:03;;;;;;;12.70;11.00;;;;;;;;;;5015318;28;20411;-45
2023/05/21 10:03:31;;;;;;;16.87;12.50;;;;;;;;;;5015200;28;20454;-45
2023/05/21 10:05:58;;;;;;;14.67;12.67;;;;;;;;;;5007060;28;20502;-45
2023/05/21 10:08:26;;;;;;;14.03;12.60;;;;;;;;;;5015062;28;20473;-45
2023/05/21 10:10:52;;;;;;;16.70;13.07;;;;;;;;;;5015144;28;20410;-45
2023/05/21 10:13:21;;;;;;;13.60;12.20;;;;;;;;;;5015084;28;20411;-45
2023/05/21 10:15:53;;;;;;;12.43;11.23;;;;;;;;;;5015013;28;20411;-45
2023/05/21 10:18:20;;;;;;;18.20;12.90;;;;;;;;;;5014777;28;20434;-45
2023/05/21 10:20:46;;;;;;;14.10;12.57;;;;;;;;;;5013989;28;20534;-45
2023/05/21 10:23:12;;;;;;;16.90;13.40;;;;;;;;;;5014989;28;20718;-45
2023/05/21 10:25:38;;;;;;;14.20;12.70;;;;;;;;;;5014696;28;20896;-45
2023/05/21 10:28:06;;;;;;;14.60;12.70;;;;;;;;;;5021504;28;20506;-45
2023/05/21 10:30:32;;;;;;;14.57;12.13;;;;;;;;;;5014734;28;20411;-45
2023/05/21 10:32:59;;;;;;;16.97;13.90;;;;;;;;;;5014589;28;20902;-45
2023/05/21 10:35:25;;;;;;;13.93;12.43;;;;;;;;;;5014837;28;20549;-45
2023/05/21 10:37:52;;;;;;;15.10;12.93;;;;;;;;;;5014290;28;20435;-45
2023/05/21 10:40:18;;;;;;;15.17;11.57;;;;;;;;;;5014571;28;20431;-45
2023/05/21 10:43:10;;;;;;;14.90;13.30;;;;;;;;;;5034718;23;20498;-45
2023/05/21 10:45:49;;;;;;;15.03;12.47;;;;;;;;;;4999575;28;20499;-44
2023/05/21 10:48:23;;;;;;;17.17;15.00;;;;;;;;;;5014038;28;20496;-45
2023/05/21 10:50:52;;;;;;;15.93;13.47;;;;;;;;;;5013478;28;20432;-48
2023/05/21 10:53:24;;;;;;;14.20;12.67;;;;;;;;;;5014351;28;20426;-45
2023/05/21 10:55:57;;;;;;;14.27;12.33;;;;;;;;;;5014278;28;20417;-45
2023/05/21 10:58:44;;;;;;;18.70;14.47;;;;;;;;;;5014181;28;20413;-50
2023/05/21 11:01:10;;;;;;;16.57;14.20;;;;;;;;;;5014009;28;20922;-46
2023/05/21 11:03:37;;;;;;;18.00;15.13;;;;;;;;;;5014364;28;20437;-45
2023/05/21 11:06:05;;;;;;;15.10;13.50;;;;;;;;;;5013839;28;21045;-45
2023/05/21 11:08:34;;;;;;;14.40;13.00;;;;;;;;;;5014080;28;20413;-48
2023/05/21 11:11:00;;;;;;;14.80;13.30;;;;;;;;;;5014007;28;20473;-46
2023/05/21 11:13:27;;;;;;;17.67;13.83;;;;;;;;;;5013927;28;20438;-46
2023/05/21 11:16:04;;;;;;;17.70;14.53;;;;;;;;;;5013975;28;20403;-45
2023/05/21 11:18:30;;;;;;;18.23;13.37;;;;;;;;;;5010519;28;20412;-45
2023/05/21 11:21:15;;;;;;;15.83;14.27;;;;;;;;;;5011581;28;20513;-45
2023/05/21 11:23:48;;;;;;;18.37;14.37;;;;;;;;;;5013960;28;20472;-45
2023/05/21 11:26:17;;;;;;;20.23;14.10;;;;;;;;;;5013452;28;20477;-44
2023/05/21 11:28:43;;;;;;;18.30;13.10;;;;;;;;;;5013788;28;20989;-45
2023/05/21 11:31:33;;;;;;;14.70;13.00;;;;;;;;;;5013807;28;20502;-45
2023/05/21 11:34:14;;;;;;;14.40;12.83;;;;;;;;;;5005880;28;20767;-45
2023/05/21 11:36:44;;;;;;;15.33;13.67;;;;;;;;;;5013565;28;20497;-47
2023/05/21 11:39:20;;;;;;;12.57;11.27;;;;;;;;;;5019778;28;20411;-45
2023/05/21 11:41:59;;;;;;;15.80;13.23;;;;;;;;;;5013285;28;20419;-47
2023/05/21 11:44:41;;;;;;;16.13;14.27;;;;;;;;;;5013468;28;20937;-45
2023/05/21 11:47:17;;;;;;;15.53;13.73;;;;;;;;;;5006431;28;20486;-45
2023/05/21 11:49:43;;;;;;;15.30;13.80;;;;;;;;;;5012396;28;20418;-46
2023/05/21 11:52:10;;;;;;;15.97;13.60;;;;;;;;;;5013330;28;20642;-47
2023/05/21 11:54:40;;;;;;;15.80;13.47;;;;;;;;;;5012358;28;20966;-45
2023/05/21 11:57:07;;;;;;;15.57;13.97;;;;;;;;;;5012931;28;20472;-45
2023/05/21 11:59:33;;;;;;;14.57;13.07;;;;;;;;;;5012147;28;20443;-45
2023/05/21 12:01:59;;;;;;;16.47;14.13;;;;;;;;;;5013055;28;20430;-49
2023/05/21 12:04:35;;;;;;;16.70;14.73;;;;;;;;;;5013323;28;20773;-49
2023/05/21 12:07:06;;;;;;;14.13;12.73;;;;;;;;;;5005266;28;20489;-45
2023/05/21 12:09:38;;;;;;;16.10;12.63;;;;;;;;;;5012820;28;20407;-45
2023/05/21 12:12:05;;;;;;;15.77;13.87;;;;;;;;;;5013129;28;20825;-47
2023/05/21 12:14:31;;;;;;;15.47;13.87;;;;;;;;;;5012926;28;20400;-48
2023/05/21 12:16:57;;;;;;;13.83;12.43;;;;;;;;;;5012523;28;20794;-45
2023/05/21 12:19:23;;;;;;;14.70;12.87;;;;;;;;;;5012855;28;20458;-45
2023/05/21 12:21:49;;;;;;;14.53;13.03;;;;;;;;;;5010612;28;20506;-47
2023/05/21 12:24:15;;;;;;;16.73;13.10;;;;;;;;;;5012037;28;20423;-47
2023/05/21 12:26:43;;;;;;;16.47;13.37;;;;;;;;;;5012245;28;20521;-45
2023/05/21 12:29:09;;;;;;;14.20;12.17;;;;;;;;;;5012646;28;20410;-45
2023/05/21 12:31:47;;;;;;;13.67;12.27;;;;;;;;;;5010667;28;20788;-48
2023/05/21 12:34:14;;;;;;;13.80;12.30;;;;;;;;;;5006830;28;20402;-45
2023/05/21 12:36:47;;;;;;;17.67;14.30;;;;;;;;;;5012527;28;20415;-48
2023/05/21 12:39:13;;;;;;;14.93;13.43;;;;;;;;;;5016271;28;20411;-45
2023/05/21 12:41:39;;;;;;;16.63;14.37;;;;;;;;;;5012151;28;20421;-45
2023/05/21 12:44:07;;;;;;;18.27;14.00;;;;;;;;;;5012455;28;20899;-45
2023/05/21 12:46:33;;;;;;;16.10;13.50;;;;;;;;;;5010860;28;20465;-46
2023/05/21 12:48:59;;;;;;;23.13;14.23;;;;;;;;;;5012181;28;20793;-46
2023/05/21 12:51:25;;;;;;;14.70;13.20;;;;;;;;;;5012259;28;20403;-47
2023/05/21 12:53:51;;;;;;;17.30;13.17;;;;;;;;;;5012189;28;20449;-48
2023/05/21 12:56:17;;;;;;;16.07;13.80;;;;;;;;;;5012002;28;20419;-45
2023/05/21 12:58:49;;;;;;;14.83;11.90;;;;;;;;;;5012133;28;20423;-45
2023/05/21 13:01:15;;;;;;;15.73;14.13;;;;;;;;;;5012111;28;21037;-45
2023/05/21 13:03:41;;;;;;;15.10;13.50;;;;;;;;;;5010856;28;20533;-45
2023/05/21 13:06:08;;;;;;;14.13;12.63;;;;;;;;;;5011682;28;20520;-46
2023/05/21 13:08:34;;;;;;;13.67;11.90;;;;;;;;;;5011992;28;20422;-45
2023/05/21 13:11:03;;;;;;;13.40;12.00;;;;;;;;;;5011723;28;20506;-47
2023/05/21 13:13:29;;;;;;;14.77;12.67;;;;;;;;;;5012105;28;20419;-45
2023/05/21 13:15:55;;;;;;;14.13;12.83;;;;;;;;;;5011459;28;20906;-49
2023/05/21 13:18:21;;;;;;;14.43;12.97;;;;;;;;;;5011869;28;20415;-46
2023/05/21 13:20:47;;;;;;;15.10;13.70;;;;;;;;;;5011745;28;20926;-46
2023/05/21 13:23:16;;;;;;;15.03;13.43;;;;;;;;;;5011793;28;20445;-46
2023/05/21 13:25:42;;;;;;;13.63;12.27;;;;;;;;;;5011791;28;20462;-45
2023/05/21 13:28:11;;;;;;;15.60;13.37;;;;;;;;;;5011623;28;20403;-46
2023/05/21 13:30:37;;;;;;;13.30;11.90;;;;;;;;;;5011686;28;20832;-45
2023/05/21 13:33:05;;;;;;;16.63;12.53;;;;;;;;;;5010733;28;20504;-45
2023/05/21 13:35:33;;;;;;;13.07;11.83;;;;;;;;;;5010992;28;20431;-46
2023/05/21 13:37:59;;;;;;;15.30;12.20;;;;;;;;;;5018939;28;20454;-46
2023/05/21 13:40:25;;;;;;;13.40;11.47;;;;;;;;;;5011699;28;20411;-44
2023/05/21 13:42:51;;;;;;;15.40;12.90;;;;;;;;;;5011389;28;20458;-44
2023/05/21 13:45:19;;;;;;;13.13;11.93;;;;;;;;;;5011625;28;20180;-47
2023/05/21 13:47:45;;;;;;;13.37;12.07;;;;;;;;;;5011337;28;20651;-44
2023/05/21 13:50:12;;;;;;;14.73;13.23;;;;;;;;;;5011577;28;20762;-44
2023/05/21 13:52:38;;;;;;;12.57;11.37;;;;;;;;;;5011632;28;20427;-44
2023/05/21 13:55:05;;;;;;;12.70;11.50;;;;;;;;;;5011581;28;20411;-44
2023/05/21 13:57:31;;;;;;;12.90;11.50;;;;;;;;;;5011194;28;20411;-46
2023/05/21 13:59:57;;;;;;;12.73;11.13;;;;;;;;;;5011531;28;20411;-44
2023/05/21 14:02:23;;;;;;;11.60;10.57;;;;;;;;;;5011416;28;20810;-43
2023/05/21 14:04:49;;;;;;;11.83;10.63;;;;;;;;;;5009637;28;20435;-43
2023/05/21 14:07:15;;;;;;;11.47;9.90;;;;;;;;;;5010492;28;20672;-44
2023/05/21 14:09:41;;;;;;;11.97;10.57;;;;;;;;;;5011436;28;20195;-44
2023/05/21 14:12:07;;;;;;;11.87;10.40;;;;;;;;;;5004783;28;20423;-44
2023/05/21 14:14:33;;;;;;;10.93;9.83;;;;;;;;;;5011634;28;20848;-44
2023/05/21 14:16:59;;;;;;;10.43;9.53;;;;;;;;;;5011246;28;20987;-45
2023/05/21 14:19:25;;;;;;;11.80;10.60;;;;;;;;;;5011347;28;20422;-44
2023/05/21 14:21:52;;;;;;;10.93;9.90;;;;;;;;;;5009996;28;20450;-46
2023/05/21 14:24:18;;;;;;;11.00;9.57;;;;;;;;;;5017604;28;20407;-46